createdAt,value
2023-04-10T00:02:23.779Z,100738.77
2023-04-10T00:05:27.477Z,100741.38
2023-04-10T00:08:30.112Z,100741.82
2023-04-10T00:11:32.820Z,100743.36
2023-04-10T00:14:40.602Z,100737.86
2023-04-10T00:17:43.221Z,100728.20
2023-04-10T00:20:46.254Z,100732.80
2023-04-10T00:23:49.118Z,100728.67
2023-04-10T00:26:51.802Z,100725.77
2023-04-10T00:29:54.307Z,100729.00
2023-04-10T00:32:57.048Z,100729.70
2023-04-10T00:35:59.694Z,100730.92
2023-04-10T00:39:02.305Z,100730.98
2023-04-10T00:42:10.180Z,100727.55
2023-04-10T00:45:12.786Z,100725.70
2023-04-10T00:48:15.826Z,100721.67
2023-04-10T00:51:20.827Z,100718.02
2023-04-10T00:54:23.834Z,100711.67
2023-04-10T00:57:27.204Z,100708.86
2023-04-10T01:00:29.856Z,100706.47
2023-04-10T01:03:40.699Z,100706.25
2023-04-10T01:06:59.565Z,100707.52
2023-04-10T01:10:14.052Z,100706.95
2023-04-10T01:13:26.901Z,100709.60
2023-04-10T01:16:40.962Z,100708.89
2023-04-10T01:20:04.460Z,100713.89
2023-04-10T01:27:47.031Z,100716.17
2023-04-10T01:30:54.493Z,100718.80
2023-04-10T01:34:06.307Z,100721.13
2023-04-10T01:37:14.152Z,100723.10
2023-04-10T01:40:19.592Z,100721.95
2023-04-10T01:43:23.139Z,100719.64
2023-04-10T01:46:27.725Z,100714.38
2023-04-10T01:49:32.394Z,100715.38
2023-04-10T01:52:43.950Z,100715.59
2023-04-10T01:55:47.106Z,100716.84
2023-04-10T01:58:51.027Z,100720.20
2023-04-10T02:02:01.468Z,100716.42
2023-04-10T02:05:04.647Z,100723.17
2023-04-10T02:08:36.636Z,100728.27
2023-04-10T02:12:05.992Z,100730.08
2023-04-10T02:15:16.973Z,100728.45
2023-04-10T02:18:22.342Z,100732.11
2023-04-10T02:21:25.006Z,100728.57
2023-04-10T02:24:36.982Z,100726.95
2023-04-10T02:27:41.037Z,100727.14
2023-04-10T02:30:43.615Z,100728.16
2023-04-10T02:33:46.605Z,100727.09
2023-04-10T02:36:49.147Z,100727.52
2023-04-10T02:39:58.033Z,100729.73
2023-04-10T02:43:00.803Z,100725.21
2023-04-10T02:46:03.495Z,100726.48
2023-04-10T02:49:07.703Z,100723.98
2023-04-10T02:52:10.468Z,100722.19
2023-04-10T02:55:13.223Z,100719.38
2023-04-10T02:58:16.049Z,100720.48
2023-04-10T03:01:18.887Z,100719.50
2023-04-10T03:04:21.713Z,100723.77
2023-04-10T03:07:54.087Z,100723.91
2023-04-10T03:10:56.764Z,100728.03
2023-04-10T03:13:59.521Z,100727.34
2023-04-10T03:17:02.200Z,100725.60
2023-04-10T03:20:05.500Z,100728.59
2023-04-10T03:23:08.117Z,100723.35
2023-04-10T03:26:10.794Z,100721.71
2023-04-10T03:33:01.878Z,100719.02
2023-04-10T03:36:05.252Z,100717.90
2023-04-10T03:39:07.893Z,100717.37
2023-04-10T03:42:11.423Z,100715.09
2023-04-10T03:45:14.154Z,100713.70
2023-04-10T03:48:18.018Z,100712.63
2023-04-10T03:51:20.766Z,100710.55
2023-04-10T03:54:23.409Z,100712.05
2023-04-10T03:57:26.064Z,100712.13
2023-04-10T04:00:28.684Z,100711.98
2023-04-10T04:03:31.681Z,100710.52
2023-04-10T04:06:43.039Z,100710.13
2023-04-10T04:09:49.855Z,100709.79
2023-04-10T04:13:16.684Z,100716.64
2023-04-10T04:16:19.683Z,100722.45
2023-04-10T04:19:22.477Z,100723.48
2023-04-10T04:22:25.275Z,100722.06
2023-04-10T04:25:27.876Z,100724.50
2023-04-10T04:28:30.659Z,100731.14
2023-04-10T04:31:35.350Z,100732.98
2023-04-10T04:34:38.057Z,100731.88
2023-04-10T04:37:40.967Z,100732.19
2023-04-10T04:40:43.661Z,100732.12
2023-04-10T04:43:47.694Z,100735.79
2023-04-10T04:46:50.521Z,100741.50
2023-04-10T04:49:53.313Z,100746.43
2023-04-10T04:52:56.128Z,100750.12
2023-04-10T04:55:58.958Z,100753.41
2023-04-10T04:59:01.602Z,100751.15
2023-04-10T05:02:18.940Z,100753.76
2023-04-10T05:05:21.821Z,100754.80
2023-04-10T05:08:24.590Z,100758.20
2023-04-10T05:11:27.249Z,100754.84
2023-04-10T05:14:29.919Z,100757.13
2023-04-10T05:17:32.661Z,100759.17
2023-04-10T05:20:36.077Z,100759.65
2023-04-10T05:23:42.995Z,100763.97
2023-04-10T05:26:47.885Z,100770.84
2023-04-10T05:29:50.985Z,100768.77
2023-04-10T05:32:53.671Z,100772.81
2023-04-10T05:35:56.806Z,100771.36
2023-04-10T05:38:59.553Z,100773.70
2023-04-10T05:42:03.054Z,100773.14
2023-04-10T05:45:06.497Z,100772.80
2023-04-10T05:48:09.119Z,100771.66
2023-04-10T05:51:11.818Z,100773.08
2023-04-10T05:54:22.968Z,100777.63
2023-04-10T05:57:29.647Z,100775.29
2023-04-10T06:00:32.370Z,100775.30
2023-04-10T06:03:35.554Z,100776.85
2023-04-10T06:06:39.275Z,100777.16
2023-04-10T06:09:44.046Z,100774.92
2023-04-10T06:12:46.877Z,100774.29
2023-04-10T06:15:49.653Z,100776.36
2023-04-10T06:18:54.470Z,100773.70
2023-04-10T06:22:19.521Z,100775.52
2023-04-10T06:25:22.272Z,100778.94
2023-04-10T06:28:24.975Z,100779.75
2023-04-10T06:31:27.795Z,100778.98
2023-04-10T06:34:37.204Z,100776.08
2023-04-10T06:37:43.821Z,100770.99
2023-04-10T06:40:46.844Z,100768.48
2023-04-10T06:43:49.466Z,100768.84
2023-04-10T06:46:52.164Z,100769.48
2023-04-10T06:49:54.857Z,100770.46
2023-04-10T06:53:00.130Z,100770.20
2023-04-10T06:56:07.212Z,100768.77
2023-04-10T06:59:12.903Z,100770.98
2023-04-10T07:02:17.893Z,100768.90
2023-04-10T07:05:21.168Z,100766.91
2023-04-10T07:08:24.253Z,100760.48
2023-04-10T07:11:27.065Z,100748.95
2023-04-10T07:15:00.452Z,100770.21
2023-04-10T07:18:03.439Z,100768.75
2023-04-10T07:21:14.516Z,100764.21
2023-04-10T07:24:18.135Z,100761.95
2023-04-10T07:27:31.547Z,100763.36
2023-04-10T07:30:35.116Z,100767.55
2023-04-10T07:33:38.929Z,100766.35
2023-04-10T07:36:41.627Z,100762.09
2023-04-10T07:40:15.413Z,100760.15
2023-04-10T07:43:18.126Z,100741.32
2023-04-10T07:46:21.171Z,100765.41
2023-04-10T07:49:23.903Z,100764.98
2023-04-10T07:52:26.624Z,100766.40
2023-04-10T07:55:29.228Z,100765.56
2023-04-10T07:58:33.236Z,100765.55
2023-04-10T08:01:36.035Z,100758.80
2023-04-10T08:04:38.814Z,100759.48
2023-04-10T08:07:41.557Z,100759.89
2023-04-10T08:10:44.179Z,100764.47
2023-04-10T08:13:47.053Z,100763.26
2023-04-10T08:16:49.820Z,100758.77
2023-04-10T08:19:53.163Z,100761.56
2023-04-10T08:22:58.866Z,100760.75
2023-04-10T08:26:06.515Z,100759.61
2023-04-10T08:29:09.165Z,100757.35
2023-04-10T08:32:11.891Z,100755.60
2023-04-10T08:35:14.706Z,100755.33
2023-04-10T08:38:17.509Z,100753.62
2023-04-10T08:41:21.015Z,100755.08
2023-04-10T08:44:23.621Z,100755.30
2023-04-10T08:47:28.677Z,100753.76
2023-04-10T08:50:33.952Z,100750.27
2023-04-10T08:53:41.414Z,100744.67
2023-04-10T08:56:58.715Z,100743.79
2023-04-10T09:00:09.639Z,100744.27
2023-04-10T09:03:23.168Z,100739.88
2023-04-10T09:06:29.096Z,100735.90
2023-04-10T09:09:34.706Z,100737.75
2023-04-10T09:12:48.841Z,100731.44
2023-04-10T09:16:01.428Z,100728.34
2023-04-10T09:19:06.481Z,100722.45
2023-04-10T09:22:47.761Z,100722.98
2023-04-10T09:25:51.343Z,100714.55
2023-04-10T09:28:58.493Z,100714.84
2023-04-10T09:32:01.252Z,100710.02
2023-04-10T09:35:06.845Z,100712.13
2023-04-10T09:38:17.996Z,100711.17
2023-04-10T09:41:20.778Z,100697.81
2023-04-10T09:44:34.540Z,100704.89
2023-04-10T09:47:37.977Z,100699.02
2023-04-10T09:50:41.202Z,100697.23
2023-04-10T09:53:51.050Z,100701.78
2023-04-10T09:56:54.032Z,100694.74
2023-04-10T10:00:08.478Z,100691.58
2023-04-10T10:03:13.972Z,100690.42
2023-04-10T10:06:17.161Z,100688.84
2023-04-10T10:09:20.363Z,100688.98
2023-04-10T10:12:28.933Z,100683.73
2023-04-10T10:15:31.644Z,100682.01
2023-04-10T10:18:53.874Z,100679.73
2023-04-10T10:22:00.409Z,100673.30
2023-04-10T10:25:03.964Z,100675.91
2023-04-10T10:28:06.984Z,100671.81
2023-04-10T10:31:10.408Z,100672.76
2023-04-10T10:34:15.227Z,100669.77
2023-04-10T10:37:19.238Z,100665.64
2023-04-10T10:40:32.141Z,100666.27
2023-04-10T10:44:01.930Z,100660.75
2023-04-10T10:47:16.104Z,100656.96
2023-04-10T10:50:18.875Z,100653.66
2023-04-10T10:53:43.081Z,100651.28
2023-04-10T10:56:46.065Z,100646.62
2023-04-10T10:59:51.230Z,100645.02
2023-04-10T11:03:09.635Z,100640.78
2023-04-10T11:06:19.798Z,100637.05
2023-04-10T11:09:51.334Z,100632.81
2023-04-10T11:13:19.592Z,100628.44
2023-04-10T11:16:41.113Z,100620.91
2023-04-10T11:20:04.260Z,100615.73
2023-04-10T11:23:12.515Z,100612.52
2023-04-10T11:26:35.880Z,100611.39
2023-04-10T11:29:38.676Z,100610.42
2023-04-10T11:32:51.004Z,100607.10
2023-04-10T11:35:53.941Z,100604.36
2023-04-10T11:39:01.027Z,100600.69
2023-04-10T11:42:04.929Z,100597.20
2023-04-10T11:45:27.817Z,100595.80
2023-04-10T11:48:31.589Z,100592.66
2023-04-10T11:51:34.450Z,100590.08
2023-04-10T11:54:37.929Z,100584.03
2023-04-10T11:57:40.941Z,100582.27
2023-04-10T12:00:43.726Z,100578.80
2023-04-10T12:03:46.710Z,100573.76
2023-04-10T12:06:54.031Z,100566.74
2023-04-10T12:10:00.565Z,100560.00
2023-04-10T12:13:03.455Z,100556.63
2023-04-10T12:16:10.981Z,100550.94
2023-04-10T12:19:16.003Z,100548.31
2023-04-10T12:22:18.896Z,100545.16
2023-04-10T12:25:21.789Z,100537.35
2023-04-10T12:28:24.637Z,100538.23
2023-04-10T12:31:36.425Z,100527.30
2023-04-10T12:38:37.865Z,100521.77
2023-04-10T12:41:40.665Z,100515.56
2023-04-10T12:48:35.968Z,100498.73
2023-04-10T12:51:48.898Z,100495.93
2023-04-10T12:54:51.668Z,100493.63
2023-04-10T12:58:18.169Z,100489.47
2023-04-10T13:01:21.569Z,100477.05
2023-04-10T13:04:24.655Z,100473.10
2023-04-10T13:07:27.541Z,100466.33
2023-04-10T13:10:30.375Z,100464.00
2023-04-10T13:13:33.340Z,100455.58
2023-04-10T13:16:36.243Z,100447.75
2023-04-10T13:19:43.757Z,100439.59
2023-04-10T13:22:46.860Z,100432.11
2023-04-10T13:25:49.886Z,100432.43
2023-04-10T13:28:54.433Z,100432.20
2023-04-10T13:31:57.575Z,100423.49
2023-04-10T13:35:00.903Z,100415.71
2023-04-10T13:38:04.130Z,100409.27
2023-04-10T13:41:07.346Z,100405.23
2023-04-10T13:44:10.562Z,100398.14
2023-04-10T13:47:18.224Z,100394.08
2023-04-10T13:50:21.282Z,100383.33
2023-04-10T13:53:24.549Z,100382.45
2023-04-10T13:56:27.597Z,100383.55
2023-04-10T13:59:31.134Z,100378.95
2023-04-10T14:02:39.996Z,100358.61
2023-04-10T14:05:43.185Z,100367.98
2023-04-10T14:08:47.257Z,100361.48
2023-04-10T14:11:52.427Z,100358.72
2023-04-10T14:14:57.014Z,100357.90
2023-04-10T14:18:04.274Z,100352.21
2023-04-10T14:21:08.491Z,100346.34
2023-04-10T14:24:12.183Z,100345.89
2023-04-10T14:27:16.357Z,100345.09
2023-04-10T14:30:20.709Z,100346.95
2023-04-10T14:33:23.672Z,100330.96
2023-04-10T14:36:27.882Z,100337.91
2023-04-10T14:39:31.517Z,100332.66
2023-04-10T14:42:34.306Z,100325.88
2023-04-10T14:45:37.110Z,100326.30
2023-04-10T14:48:40.076Z,100319.59
2023-04-10T14:51:44.060Z,100313.73
2023-04-10T14:54:46.848Z,100315.88
2023-04-10T14:57:50.040Z,100308.96
2023-04-10T15:00:53.035Z,100306.45
2023-04-10T15:03:56.334Z,100297.44
2023-04-10T15:06:59.266Z,100292.15
2023-04-10T15:10:02.088Z,100287.36
2023-04-10T15:13:06.105Z,100283.70
2023-04-10T15:16:09.289Z,100276.09
2023-04-10T15:19:12.073Z,100270.10
2023-04-10T15:22:18.028Z,100271.45
2023-04-10T15:25:21.107Z,100268.30
2023-04-10T15:28:23.916Z,100266.64
2023-04-10T15:31:26.729Z,100264.58
2023-04-10T15:34:29.435Z,100263.63
2023-04-10T15:37:34.316Z,100255.84
2023-04-10T15:40:36.990Z,100252.06
2023-04-10T15:43:39.750Z,100247.80
2023-04-10T15:46:43.386Z,100248.39
2023-04-10T15:49:46.193Z,100236.91
2023-04-10T15:52:48.980Z,100233.23
2023-04-10T15:55:51.852Z,100229.75
2023-04-10T15:58:54.618Z,100222.60
2023-04-10T16:01:57.833Z,100219.05
2023-04-10T16:05:01.059Z,100215.51
2023-04-10T16:08:04.081Z,100208.47
2023-04-10T16:11:06.923Z,100205.45
2023-04-10T16:14:10.060Z,100205.88
2023-04-10T16:17:12.752Z,100203.45
2023-04-10T16:20:15.514Z,100199.52
2023-04-10T16:23:18.254Z,100194.11
2023-04-10T16:26:21.449Z,100189.71
2023-04-10T16:29:24.559Z,100191.58
2023-04-10T16:32:28.446Z,100185.53
2023-04-10T16:35:32.589Z,100175.00
2023-04-10T16:38:35.834Z,100168.73
2023-04-10T16:41:38.905Z,100164.14
2023-04-10T16:44:41.639Z,100159.23
2023-04-10T16:47:46.193Z,100157.30
2023-04-10T16:50:49.078Z,100151.16
2023-04-10T16:53:52.174Z,100147.05
2023-04-10T16:56:55.815Z,100144.27
2023-04-10T16:59:59.350Z,100142.52
2023-04-10T17:03:02.676Z,100144.73
2023-04-10T17:06:05.931Z,100142.88
2023-04-10T17:09:08.664Z,100140.13
2023-04-10T17:12:11.611Z,100138.62
2023-04-10T17:15:14.842Z,100136.98
2023-04-10T17:18:20.053Z,100130.48
2023-04-10T17:21:22.747Z,100132.11
2023-04-10T17:24:31.552Z,100127.73
2023-04-10T17:27:35.135Z,100123.98
2023-04-10T17:30:38.269Z,100118.91
2023-04-10T17:33:44.660Z,100116.08
2023-04-10T17:36:49.673Z,100113.74
2023-04-10T17:39:54.305Z,100107.11
2023-04-10T17:42:56.986Z,100104.84
2023-04-10T17:46:02.612Z,100107.56
2023-04-10T17:49:05.905Z,100099.64
2023-04-10T17:52:08.710Z,100098.83
2023-04-10T17:55:11.826Z,100101.80
2023-04-10T17:58:15.116Z,100085.11
2023-04-10T18:01:31.013Z,100099.52
2023-04-10T18:04:34.160Z,100094.94
2023-04-10T18:07:38.105Z,100096.05
2023-04-10T18:10:41.208Z,100087.14
2023-04-10T18:13:44.480Z,100088.59
2023-04-10T18:16:48.964Z,100092.45
2023-04-10T18:19:55.812Z,100096.65
2023-04-10T18:22:58.825Z,100096.61
2023-04-10T18:26:01.748Z,100100.39
2023-04-10T18:29:04.944Z,100097.95
2023-04-10T18:32:08.146Z,100108.75
2023-04-10T18:35:11.097Z,100105.16
2023-04-10T18:38:14.231Z,100101.55
2023-04-10T18:41:17.359Z,100100.86
2023-04-10T18:44:20.374Z,100099.98
2023-04-10T18:47:23.161Z,100100.35
2023-04-10T18:50:26.081Z,100101.15
2023-04-10T18:53:29.248Z,100096.36
2023-04-10T18:56:35.394Z,100090.95
2023-04-10T18:59:38.486Z,100082.86
2023-04-10T19:02:41.573Z,100078.40
2023-04-10T19:05:44.633Z,100076.52
2023-04-10T19:08:47.738Z,100078.89
2023-04-10T19:11:50.763Z,100075.02
2023-04-10T19:14:53.833Z,100072.00
2023-04-10T19:17:56.659Z,100071.04
2023-04-10T19:20:59.563Z,100073.32
2023-04-10T19:24:02.733Z,100071.84
2023-04-10T19:27:06.524Z,100069.23
2023-04-10T19:30:09.630Z,100058.64
2023-04-10T19:33:12.378Z,100056.92
2023-04-10T19:36:18.083Z,100054.95
2023-04-10T19:39:21.454Z,100052.23
2023-04-10T19:42:24.550Z,100042.25
2023-04-10T19:45:29.256Z,100035.75
2023-04-10T19:48:32.963Z,100032.60
2023-04-10T19:51:35.776Z,100028.27
2023-04-10T19:54:38.485Z,100020.00
2023-04-10T19:57:41.707Z,100020.66
2023-04-10T20:00:44.486Z,100020.41
2023-04-10T20:03:47.443Z,100020.60
2023-04-10T20:06:50.649Z,100013.81
2023-04-10T20:09:53.375Z,100008.08
2023-04-10T20:12:56.203Z,100002.39
2023-04-10T20:16:02.305Z,99990.92
2023-04-10T20:19:05.052Z,99987.80
2023-04-10T20:22:08.158Z,99980.08
2023-04-10T20:25:10.884Z,99976.90
2023-04-10T20:28:15.376Z,99975.98
2023-04-10T20:31:18.069Z,99973.95
2023-04-10T20:34:20.748Z,99972.20
2023-04-10T20:37:23.502Z,99969.95
2023-04-10T20:40:26.767Z,99967.16
2023-04-10T20:43:29.421Z,99961.44
2023-04-10T20:46:32.176Z,99959.70
2023-04-10T20:49:37.545Z,99962.78
2023-04-10T20:52:40.483Z,99955.92
2023-04-10T20:55:43.123Z,99956.13
2023-04-10T20:58:46.098Z,99948.70
2023-04-10T21:01:49.001Z,99945.40
2023-04-10T21:04:54.658Z,99939.68
2023-04-10T21:07:57.470Z,99931.17
2023-04-10T21:11:00.155Z,99931.02
2023-04-10T21:14:03.340Z,99929.96
2023-04-10T21:17:06.014Z,99929.91
2023-04-10T21:20:09.045Z,99923.34
2023-04-10T21:23:11.742Z,99918.52
2023-04-10T21:26:14.515Z,99917.09
2023-04-10T21:29:17.272Z,99917.05
2023-04-10T21:32:21.971Z,99914.30
2023-04-10T21:35:24.855Z,99909.11
2023-04-10T21:38:28.240Z,99908.14
2023-04-10T21:41:31.020Z,99903.20
2023-04-10T21:44:33.664Z,99897.88
2023-04-10T21:47:36.318Z,99895.80
2023-04-10T21:50:45.283Z,99890.75
2023-04-10T21:53:47.922Z,99884.20
2023-04-10T21:56:50.559Z,99883.11
2023-04-10T21:59:53.167Z,99879.27
2023-04-10T22:02:56.118Z,99881.40
2023-04-10T22:05:58.994Z,99874.92
2023-04-10T22:09:01.660Z,99865.04
2023-04-10T22:12:04.584Z,99860.48
2023-04-10T22:15:07.990Z,99857.19
2023-04-10T22:18:10.814Z,99852.86
2023-04-10T22:21:13.533Z,99849.60
2023-04-10T22:24:16.266Z,99850.69
2023-04-10T22:27:26.402Z,99848.01
2023-04-10T22:30:31.421Z,99836.55
2023-04-10T22:33:34.162Z,99833.23
2023-04-10T22:36:37.070Z,99822.77
2023-04-10T22:39:39.749Z,99825.67
2023-04-10T22:42:43.763Z,99816.73
2023-04-10T22:45:47.932Z,99811.55
2023-04-10T22:48:50.720Z,99808.30
2023-04-10T22:51:53.463Z,99802.95
2023-04-10T22:54:57.594Z,99799.25
2023-04-10T22:58:01.168Z,99797.44
2023-04-10T23:01:03.882Z,99793.71
2023-04-10T23:04:06.534Z,99790.05
2023-04-10T23:07:09.180Z,99787.34
2023-04-10T23:10:11.907Z,99785.70
2023-04-10T23:13:14.598Z,99780.72
2023-04-10T23:16:17.361Z,99779.20
2023-04-10T23:19:20.070Z,99778.58
2023-04-10T23:22:22.722Z,99770.36
2023-04-10T23:25:25.436Z,99751.02
2023-04-10T23:28:28.633Z,99760.61
2023-04-10T23:31:31.512Z,99755.60
2023-04-10T23:34:34.282Z,99752.18
2023-04-10T23:37:37.376Z,99745.08
2023-04-10T23:40:40.031Z,99742.58
2023-04-10T23:43:42.719Z,99737.05
2023-04-10T23:46:45.546Z,99733.45
2023-04-10T23:49:48.330Z,99719.04
2023-04-10T23:52:52.031Z,99704.30
2023-04-10T23:55:54.819Z,99695.75
2023-04-10T23:58:57.954Z,99687.22
